createdAt,value
2023-03-08T00:01:26.411Z,98523.00
2023-03-08T00:03:55.779Z,98537.53
2023-03-08T00:06:25.502Z,98531.22
2023-03-08T00:08:57.361Z,98535.22
2023-03-08T00:11:26.117Z,98531.53
2023-03-08T00:13:56.148Z,98551.56
2023-03-08T00:16:25.369Z,98542.06
2023-03-08T00:18:53.721Z,98539.66
2023-03-08T00:21:22.462Z,98531.22
2023-03-08T00:23:53.903Z,98542.28
2023-03-08T00:26:22.387Z,98531.22
2023-03-08T00:28:50.766Z,98543.34
2023-03-08T00:31:20.534Z,98532.28
2023-03-08T00:33:53.708Z,98531.22
2023-03-08T00:36:22.121Z,98538.06
2023-03-08T00:38:51.255Z,98526.75
2023-03-08T00:41:19.977Z,98528.03
2023-03-08T00:43:48.316Z,98519.59
2023-03-08T00:46:17.316Z,98517.97
2023-03-08T00:48:48.245Z,98522.44
2023-03-08T00:51:19.065Z,98513.22
2023-03-08T00:53:49.236Z,98510.03
2023-03-08T00:56:17.648Z,98518.97
2023-03-08T00:58:46.944Z,98521.81
2023-03-08T01:01:18.077Z,98513.38
2023-03-08T01:03:50.188Z,98511.53
2023-03-08T01:06:18.839Z,98507.06
2023-03-08T01:08:47.311Z,98506.03
2023-03-08T01:11:19.227Z,98500.75
2023-03-08T01:13:48.422Z,98498.13
2023-03-08T01:16:19.076Z,98498.94
2023-03-08T01:18:47.521Z,98505.81
2023-03-08T01:21:17.648Z,98503.16
2023-03-08T01:23:46.060Z,98508.91
2023-03-08T01:26:16.401Z,98508.91
2023-03-08T01:28:45.182Z,98503.66
2023-03-08T01:31:17.195Z,98501.81
2023-03-08T01:33:46.430Z,98496.53
2023-03-08T01:36:19.664Z,98492.06
2023-03-08T01:38:48.779Z,98498.38
2023-03-08T01:41:20.792Z,98488.91
2023-03-08T01:43:49.628Z,98487.28
2023-03-08T01:46:26.179Z,98477.03
2023-03-08T01:49:06.542Z,98469.38
2023-03-08T01:51:44.406Z,98476.97
2023-03-08T01:54:17.681Z,98473.50
2023-03-08T01:56:48.771Z,98475.59
2023-03-08T01:59:17.631Z,98472.38
2023-03-08T02:01:46.918Z,98470.81
2023-03-08T02:04:15.390Z,98469.44
2023-03-08T02:06:46.931Z,98467.28
2023-03-08T02:09:20.746Z,98471.75
2023-03-08T02:11:50.307Z,98463.06
2023-03-08T02:14:18.640Z,98460.44
2023-03-08T02:16:50.641Z,98453.34
2023-03-08T02:19:26.351Z,98449.13
2023-03-08T02:21:56.096Z,98450.72
2023-03-08T02:24:26.956Z,98443.41
2023-03-08T02:27:03.047Z,98440.75
2023-03-08T02:29:31.381Z,98423.16
2023-03-08T02:31:59.724Z,98425.78
2023-03-08T02:34:28.108Z,98426.81
2023-03-08T02:36:56.456Z,98418.13
2023-03-08T02:39:26.156Z,98420.19
2023-03-08T02:41:57.046Z,98411.50
2023-03-08T02:44:25.460Z,98405.47
2023-03-08T02:46:55.058Z,98407.53
2023-03-08T02:49:23.611Z,98412.78
2023-03-08T02:51:53.496Z,98400.69
2023-03-08T02:54:22.812Z,98410.16
2023-03-08T02:56:52.535Z,98405.94
2023-03-08T02:59:22.774Z,98397.78
2023-03-08T03:01:52.580Z,98396.22
2023-03-08T03:04:20.927Z,98399.09
2023-03-08T03:06:49.339Z,98386.97
2023-03-08T03:09:18.196Z,98388.00
2023-03-08T03:11:46.802Z,98393.03
2023-03-08T03:14:16.552Z,98395.69
2023-03-08T03:16:46.685Z,98387.53
2023-03-08T03:19:15.311Z,98388.06
2023-03-08T03:21:43.697Z,98382.81
2023-03-08T03:24:12.125Z,98379.91
2023-03-08T03:26:46.545Z,98377.75
2023-03-08T03:29:16.301Z,98378.53
2023-03-08T03:31:46.587Z,98373.28
2023-03-08T03:34:15.935Z,98375.34
2023-03-08T03:36:45.825Z,98375.03
2023-03-08T03:39:14.355Z,98369.94
2023-03-08T03:41:43.846Z,98375.19
2023-03-08T03:44:16.497Z,98378.84
2023-03-08T03:46:47.549Z,98370.97
2023-03-08T03:49:19.325Z,98371.75
2023-03-08T03:51:49.123Z,98368.59
2023-03-08T03:54:25.585Z,98357.28
2023-03-08T03:56:58.199Z,98362.78
2023-03-08T03:59:30.682Z,98367.47
2023-03-08T04:01:59.109Z,98368.94
2023-03-08T04:04:35.494Z,98368.41
2023-03-08T04:07:04.672Z,98361.00
2023-03-08T04:09:38.517Z,98354.94
2023-03-08T04:12:18.140Z,98347.06
2023-03-08T04:14:47.944Z,98348.09
2023-03-08T04:17:17.685Z,98343.38
2023-03-08T04:19:50.872Z,98337.34
2023-03-08T04:22:20.714Z,98338.13
2023-03-08T04:24:54.038Z,98339.44
2023-03-08T04:27:28.715Z,98347.06
2023-03-08T04:29:58.473Z,98346.00
2023-03-08T04:32:27.710Z,98350.22
2023-03-08T04:34:59.184Z,98350.00
2023-03-08T04:37:30.630Z,98343.16
2023-03-08T04:40:09.452Z,98332.16
2023-03-08T04:42:44.145Z,98330.34
2023-03-08T04:45:16.873Z,98316.16
2023-03-08T04:47:46.048Z,98323.25
2023-03-08T04:50:15.529Z,98320.84
2023-03-08T04:52:44.190Z,98313.22
2023-03-08T04:55:13.524Z,98308.19
2023-03-08T04:57:41.984Z,98308.19
2023-03-08T05:00:12.962Z,98306.38
2023-03-08T05:02:44.723Z,98301.09
2023-03-08T05:05:17.990Z,98296.06
2023-03-08T05:07:46.987Z,98299.75
2023-03-08T05:10:15.364Z,98301.59
2023-03-08T05:12:43.827Z,98297.13
2023-03-08T05:15:13.055Z,98292.34
2023-03-08T05:17:41.401Z,98285.50
2023-03-08T05:20:12.880Z,98287.34
2023-03-08T05:22:57.630Z,98287.56
2023-03-08T05:25:32.239Z,98282.31
2023-03-08T05:28:02.039Z,98307.81
2023-03-08T05:30:30.455Z,98311.22
2023-03-08T05:32:59.163Z,98313.63
2023-03-08T05:35:29.024Z,98303.34
2023-03-08T05:37:58.042Z,98308.59
2023-03-08T05:40:26.908Z,98300.69
2023-03-08T05:42:56.185Z,98299.69
2023-03-08T05:45:27.051Z,98289.72
2023-03-08T05:47:57.268Z,98286.28
2023-03-08T05:50:26.228Z,98276.56
2023-03-08T05:52:56.711Z,98269.72
2023-03-08T05:55:29.740Z,98278.97
2023-03-08T05:57:59.618Z,98262.06
2023-03-08T06:00:29.176Z,98259.44
2023-03-08T06:03:03.877Z,98252.06
2023-03-08T06:05:35.231Z,98253.66
2023-03-08T06:08:05.535Z,98249.44
2023-03-08T06:10:34.664Z,98247.59
2023-03-08T06:13:03.590Z,98249.97
2023-03-08T06:15:32.056Z,98256.28
2023-03-08T06:18:00.370Z,98250.78
2023-03-08T06:20:29.568Z,98241.31
2023-03-08T06:22:58.213Z,98231.84
2023-03-08T06:25:27.976Z,98222.34
2023-03-08T06:27:56.683Z,98227.84
2023-03-08T06:30:34.375Z,98228.63
2023-03-08T06:33:05.084Z,98217.03
2023-03-08T06:35:34.148Z,98221.56
2023-03-08T06:38:04.254Z,98198.69
2023-03-08T06:40:35.118Z,98207.63
2023-03-08T06:43:03.610Z,98206.03
2023-03-08T06:45:34.430Z,98216.06
2023-03-08T06:48:03.320Z,98213.97
2023-03-08T06:50:31.892Z,98212.41
2023-03-08T06:53:00.578Z,98197.91
2023-03-08T06:55:44.790Z,98205.56
2023-03-08T06:58:13.293Z,98196.88
2023-03-08T07:00:41.675Z,98195.84
2023-03-08T07:03:10.997Z,98197.09
2023-03-08T07:05:39.421Z,98191.84
2023-03-08T07:08:07.925Z,98189.22
2023-03-08T07:10:36.463Z,98182.13
2023-03-08T07:13:06.131Z,98166.94
2023-03-08T07:15:36.020Z,98162.47
2023-03-08T07:18:04.975Z,98153.78
2023-03-08T07:20:33.446Z,98158.56
2023-03-08T07:23:02.015Z,98152.25
2023-03-08T07:25:30.493Z,98152.25
2023-03-08T07:28:00.472Z,98149.63
2023-03-08T07:30:30.197Z,98163.03
2023-03-08T07:32:58.631Z,98144.31
2023-03-08T07:35:27.095Z,98154.00
2023-03-08T07:37:55.533Z,98143.75
2023-03-08T07:40:24.148Z,98144.56
2023-03-08T07:42:52.443Z,98134.84
2023-03-08T07:45:39.541Z,98123.53
2023-03-08T07:48:08.298Z,98115.34
2023-03-08T07:50:36.716Z,98127.19
2023-03-08T07:53:05.472Z,98112.97
2023-03-08T07:55:33.796Z,98113.97
2023-03-08T07:58:02.134Z,98107.94
2023-03-08T08:00:30.688Z,98101.09
2023-03-08T08:03:00.398Z,98100.84
2023-03-08T08:05:29.027Z,98099.03
2023-03-08T08:07:57.374Z,98093.53
2023-03-08T08:10:25.742Z,98084.84
2023-03-08T08:12:54.035Z,98087.47
2023-03-08T08:15:25.246Z,98078.03
2023-03-08T08:17:54.306Z,98068.31
2023-03-08T08:20:25.202Z,98057.00
2023-03-08T08:22:53.700Z,98056.19
2023-03-08T08:25:22.728Z,98050.13
2023-03-08T08:27:51.860Z,98037.00
2023-03-08T08:30:20.792Z,98027.28
2023-03-08T08:32:49.301Z,98027.53
2023-03-08T08:35:17.800Z,98003.88
2023-03-08T08:37:47.464Z,98002.31
2023-03-08T08:40:16.141Z,98012.03
2023-03-08T08:42:44.485Z,98006.22
2023-03-08T08:45:13.034Z,98000.16
2023-03-08T08:47:41.391Z,97989.91
2023-03-08T08:50:14.009Z,97977.81
2023-03-08T08:52:42.516Z,97977.03
2023-03-08T08:55:12.445Z,97971.75
2023-03-08T08:57:40.751Z,97957.06
2023-03-08T09:00:11.322Z,97953.63
2023-03-08T09:02:39.698Z,97937.81
2023-03-08T09:05:08.813Z,97930.72
2023-03-08T09:07:39.225Z,97930.72
2023-03-08T09:10:10.815Z,97928.34
2023-03-08T09:12:41.308Z,97929.63
2023-03-08T09:15:11.769Z,97930.41
2023-03-08T09:17:40.318Z,97928.06
2023-03-08T09:20:10.570Z,97930.38
2023-03-08T09:22:39.491Z,97937.69
2023-03-08T09:25:09.801Z,97914.59
2023-03-08T09:27:38.538Z,97914.81
2023-03-08T09:30:12.700Z,97912.19
2023-03-08T09:32:41.196Z,97900.91
2023-03-08T09:35:10.502Z,97894.28
2023-03-08T09:37:39.265Z,97891.66
2023-03-08T09:40:09.710Z,97905.59
2023-03-08T09:42:38.928Z,97883.78
2023-03-08T09:45:22.465Z,97890.88
2023-03-08T09:48:00.063Z,97885.88
2023-03-08T09:50:44.656Z,97883.75
2023-03-08T09:53:24.413Z,97872.16
2023-03-08T09:55:57.687Z,97870.56
2023-03-08T09:58:36.076Z,97873.19
2023-03-08T10:01:23.268Z,97876.38
2023-03-08T10:04:23.773Z,97876.09
2023-03-08T10:07:22.446Z,97858.78
2023-03-08T10:10:05.086Z,97836.72
2023-03-08T10:12:43.527Z,97832.22
2023-03-08T10:15:18.807Z,97829.66
2023-03-08T10:17:54.102Z,97832.28
2023-03-08T10:20:27.152Z,97818.91
2023-03-08T10:23:00.475Z,97822.88
2023-03-08T10:25:31.691Z,97802.38
2023-03-08T10:28:03.459Z,97821.06
2023-03-08T10:30:38.176Z,97820.56
2023-03-08T10:33:12.227Z,97822.97
2023-03-08T10:35:56.736Z,97812.75
2023-03-08T10:38:29.497Z,97793.31
2023-03-08T10:41:03.891Z,97813.28
2023-03-08T10:43:35.895Z,97801.47
2023-03-08T10:46:07.541Z,97795.97
2023-03-08T10:48:37.432Z,97805.41
2023-03-08T10:51:14.863Z,97785.22
2023-03-08T10:53:55.265Z,97786.00
2023-03-08T10:56:29.206Z,97778.91
2023-03-08T10:58:59.078Z,97781.28
2023-03-08T11:01:30.294Z,97774.19
2023-03-08T11:04:06.003Z,97774.75
2023-03-08T11:06:36.292Z,97772.09
2023-03-08T11:09:06.732Z,97763.72
2023-03-08T11:11:43.520Z,97762.69
2023-03-08T11:14:13.205Z,97745.38
2023-03-08T11:17:00.427Z,97749.59
2023-03-08T11:19:42.846Z,97735.13
2023-03-08T11:22:37.895Z,97738.56
2023-03-08T11:25:20.254Z,97741.47
2023-03-08T11:28:04.753Z,97753.31
2023-03-08T11:30:47.766Z,97757.00
2023-03-08T11:33:40.005Z,97748.09
2023-03-08T11:36:20.249Z,97749.69
2023-03-08T11:38:56.462Z,97741.56
2023-03-08T11:41:31.862Z,97729.50
2023-03-08T11:44:35.703Z,97739.22
2023-03-08T11:47:53.380Z,97722.16
2023-03-08T11:50:24.860Z,97736.91
2023-03-08T11:53:07.445Z,97728.25
2023-03-08T11:55:50.692Z,97721.19
2023-03-08T11:58:25.649Z,97717.78
2023-03-08T12:01:00.850Z,97713.88
2023-03-08T12:03:35.286Z,97701.78
2023-03-08T12:06:22.841Z,97699.94
2023-03-08T12:09:02.866Z,97708.94
2023-03-08T12:11:35.793Z,97708.38
2023-03-08T12:14:14.073Z,97707.63
2023-03-08T12:16:49.646Z,97710.53
2023-03-08T12:19:29.883Z,97694.47
2023-03-08T12:22:15.484Z,97711.31
2023-03-08T12:24:52.078Z,97708.69
2023-03-08T12:27:29.697Z,97710.28
2023-03-08T12:30:17.336Z,97711.34
2023-03-08T12:32:47.355Z,97696.63
2023-03-08T12:35:32.826Z,97691.38
2023-03-08T12:38:03.506Z,97701.91
2023-03-08T12:40:40.437Z,97701.38
2023-03-08T12:43:12.765Z,97702.16
2023-03-08T12:45:44.138Z,97697.97
2023-03-08T12:48:26.731Z,97694.56
2023-03-08T12:51:07.481Z,97693.78
2023-03-08T12:53:40.833Z,97691.13
2023-03-08T12:56:31.181Z,97680.34
2023-03-08T12:59:01.723Z,97677.72
2023-03-08T13:01:41.113Z,97690.09
2023-03-08T13:04:44.721Z,97681.38
2023-03-08T13:07:23.861Z,97679.56
2023-03-08T13:09:59.559Z,97682.44
2023-03-08T13:12:52.133Z,97675.34
2023-03-08T13:15:25.328Z,97679.50
2023-03-08T13:18:03.852Z,97693.53
2023-03-08T13:21:01.213Z,97684.81
2023-03-08T13:23:36.650Z,97679.53
2023-03-08T13:26:50.449Z,97686.09
2023-03-08T13:29:22.268Z,97690.31
2023-03-08T13:31:52.503Z,97676.88
2023-03-08T13:34:30.880Z,97680.53
2023-03-08T13:37:00.132Z,97669.72
2023-03-08T13:39:31.543Z,97677.59
2023-03-08T13:42:12.104Z,97672.31
2023-03-08T13:44:41.971Z,97677.56
2023-03-08T13:47:24.257Z,97661.72
2023-03-08T13:49:57.564Z,97674.91
2023-03-08T13:52:30.060Z,97676.44
2023-03-08T13:55:01.649Z,97673.78
2023-03-08T13:57:33.573Z,97679.81
2023-03-08T14:00:23.161Z,97676.66
2023-03-08T14:02:51.669Z,97672.16
2023-03-08T14:05:23.729Z,97667.63
2023-03-08T14:08:00.941Z,97663.13
2023-03-08T14:10:45.057Z,97662.56
2023-03-08T14:13:19.600Z,97656.75
2023-03-08T14:15:54.804Z,97649.56
2023-03-08T14:18:25.152Z,97661.94
2023-03-08T14:21:07.652Z,97665.63
2023-03-08T14:23:41.180Z,97671.94
2023-03-08T14:26:31.010Z,97670.59
2023-03-08T14:29:22.153Z,97660.28
2023-03-08T14:32:06.449Z,97659.47
2023-03-08T14:34:39.301Z,97655.22
2023-03-08T14:37:16.520Z,97658.13
2023-03-08T14:39:47.209Z,97652.78
2023-03-08T14:42:23.965Z,97652.78
2023-03-08T14:44:55.148Z,97651.94
2023-03-08T14:47:27.702Z,97639.75
2023-03-08T14:49:58.687Z,97628.63
2023-03-08T14:52:30.940Z,97624.38
2023-03-08T14:54:59.368Z,97634.38
2023-03-08T14:57:30.562Z,97633.03
2023-03-08T15:00:14.043Z,97632.47
2023-03-08T15:02:44.432Z,97631.91
2023-03-08T15:05:28.110Z,97628.44
2023-03-08T15:07:59.257Z,97625.25
2023-03-08T15:10:30.914Z,97631.53
2023-03-08T15:12:59.844Z,97622.28
2023-03-08T15:15:28.408Z,97625.94
2023-03-08T15:17:58.077Z,97620.09
2023-03-08T15:20:26.413Z,97611.88
2023-03-08T15:22:57.563Z,97599.69
2023-03-08T15:25:28.020Z,97595.69
2023-03-08T15:27:56.624Z,97594.06
2023-03-08T15:30:27.937Z,97598.56
2023-03-08T15:32:59.603Z,97590.38
2023-03-08T15:35:28.256Z,97597.72
2023-03-08T15:37:56.533Z,97602.44
2023-03-08T15:40:28.221Z,97602.41
2023-03-08T15:42:56.563Z,97603.19
2023-03-08T15:45:25.851Z,97606.03
2023-03-08T15:47:59.541Z,97597.81
2023-03-08T15:50:29.416Z,97599.13
2023-03-08T15:52:58.237Z,97586.41
2023-03-08T15:55:29.157Z,97579.28
2023-03-08T15:57:57.888Z,97590.06
2023-03-08T16:00:27.719Z,97590.00
2023-03-08T16:02:56.667Z,97590.50
2023-03-08T16:05:28.473Z,97579.63
2023-03-08T16:07:59.410Z,97597.59
2023-03-08T16:10:29.751Z,97604.19
2023-03-08T16:12:58.100Z,97598.59
2023-03-08T16:15:26.574Z,97590.38
2023-03-08T16:17:54.866Z,97589.03
2023-03-08T16:20:23.534Z,97599.34
2023-03-08T16:22:53.298Z,97578.94
2023-03-08T16:25:23.102Z,97563.56
2023-03-08T16:27:52.915Z,97574.16
2023-03-08T16:30:23.895Z,97582.38
2023-03-08T16:32:54.388Z,97594.53
2023-03-08T16:35:22.788Z,97591.88
2023-03-08T16:37:54.514Z,97592.66
2023-03-08T16:40:23.191Z,97598.75
2023-03-08T16:42:52.833Z,97595.06
2023-03-08T16:45:21.319Z,97606.16
2023-03-08T16:47:49.647Z,97599.81
2023-03-08T16:50:18.671Z,97600.59
2023-03-08T16:52:48.526Z,97601.84
2023-03-08T16:55:20.276Z,97606.09
2023-03-08T16:57:48.587Z,97612.94
2023-03-08T17:00:18.141Z,97613.72
2023-03-08T17:02:46.772Z,97616.13
2023-03-08T17:05:15.167Z,97605.53
2023-03-08T17:07:43.569Z,97605.25
2023-03-08T17:10:13.154Z,97588.84
2023-03-08T17:12:42.896Z,97595.22
2023-03-08T17:15:15.704Z,97602.06
2023-03-08T17:17:47.249Z,97590.22
2023-03-08T17:20:15.612Z,97606.09
2023-03-08T17:22:45.149Z,97607.97
2023-03-08T17:25:13.479Z,97596.84
2023-03-08T17:27:43.377Z,97599.81
2023-03-08T17:30:15.652Z,97592.91
2023-03-08T17:32:44.163Z,97591.34
2023-03-08T17:35:15.952Z,97605.66
2023-03-08T17:37:44.620Z,97611.97
2023-03-08T17:40:14.803Z,97613.03
2023-03-08T17:42:45.173Z,97624.19
2023-03-08T17:45:14.407Z,97619.47
2023-03-08T17:47:43.303Z,97609.19
2023-03-08T17:50:14.129Z,97615.53
2023-03-08T17:52:43.233Z,97615.81
2023-03-08T17:55:12.368Z,97616.09
2023-03-08T17:57:40.776Z,97624.34
2023-03-08T18:00:13.036Z,97628.03
2023-03-08T18:02:41.482Z,97612.16
2023-03-08T18:05:11.444Z,97627.75
2023-03-08T18:07:41.891Z,97618.75
2023-03-08T18:10:13.148Z,97618.75
2023-03-08T18:12:41.603Z,97605.53
2023-03-08T18:15:13.302Z,97606.88
2023-03-08T18:17:41.696Z,97604.75
2023-03-08T18:20:12.445Z,97625.13
2023-03-08T18:22:41.856Z,97620.88
2023-03-08T18:25:11.241Z,97617.75
2023-03-08T18:27:40.392Z,97617.44
2023-03-08T18:30:14.276Z,97630.66
2023-03-08T18:32:42.819Z,97619.59
2023-03-08T18:35:13.415Z,97628.03
2023-03-08T18:37:41.952Z,97621.97
2023-03-08T18:40:12.646Z,97626.47
2023-03-08T18:42:41.483Z,97627.25
2023-03-08T18:45:13.095Z,97626.47
2023-03-08T18:47:41.658Z,97614.31
2023-03-08T18:50:15.636Z,97619.59
2023-03-08T18:52:44.154Z,97618.81
2023-03-08T18:55:13.277Z,97611.66
2023-03-08T18:57:41.983Z,97618.81
2023-03-08T19:00:15.369Z,97621.47
2023-03-08T19:02:43.678Z,97629.41
2023-03-08T19:05:12.976Z,97645.28
2023-03-08T19:07:42.143Z,97640.25
2023-03-08T19:10:14.806Z,97639.75
2023-03-08T19:12:44.736Z,97638.44
2023-03-08T19:15:14.652Z,97638.16
2023-03-08T19:17:43.002Z,97630.53
2023-03-08T19:20:13.405Z,97633.44
2023-03-08T19:22:41.811Z,97641.09
2023-03-08T19:25:11.228Z,97647.47
2023-03-08T19:27:39.854Z,97638.72
2023-03-08T19:30:10.671Z,97642.97
2023-03-08T19:32:42.497Z,97643.22
2023-03-08T19:35:11.648Z,97637.94
2023-03-08T19:37:40.192Z,97640.56
2023-03-08T19:40:10.888Z,97651.44
2023-03-08T19:42:39.605Z,97642.22
2023-03-08T19:45:10.046Z,97666.78
2023-03-08T19:47:39.989Z,97669.44
2023-03-08T19:50:13.174Z,97657.28
2023-03-08T19:52:41.497Z,97643.00
2023-03-08T19:55:10.737Z,97640.34
2023-03-08T19:57:39.066Z,97636.94
2023-03-08T20:00:10.211Z,97652.00
2023-03-08T20:02:45.951Z,97640.34
2023-03-08T20:05:14.431Z,97641.94
2023-03-08T20:07:42.964Z,97633.50
2023-03-08T20:10:17.673Z,97640.91
2023-03-08T20:12:47.205Z,97635.34
2023-03-08T20:15:17.367Z,97625.56
2023-03-08T20:17:48.373Z,97631.94
2023-03-08T20:20:17.348Z,97630.84
2023-03-08T20:22:46.405Z,97630.56
2023-03-08T20:25:20.031Z,97630.06
2023-03-08T20:27:48.399Z,97638.00
2023-03-08T20:30:17.152Z,97633.50
2023-03-08T20:32:46.869Z,97624.78
2023-03-08T20:35:15.768Z,97634.28
2023-03-08T20:37:44.126Z,97624.00
2023-03-08T20:40:16.612Z,97624.78
2023-03-08T20:42:45.246Z,97629.28
2023-03-08T20:45:14.231Z,97633.78
2023-03-08T20:47:42.573Z,97633.78
2023-03-08T20:50:13.277Z,97626.13
2023-03-08T20:52:41.629Z,97638.25
2023-03-08T20:55:10.643Z,97620.34
2023-03-08T20:57:38.951Z,97624.56
2023-03-08T21:00:09.647Z,97632.47
2023-03-08T21:02:38.416Z,97629.06
2023-03-08T21:05:08.112Z,97627.47
2023-03-08T21:07:37.822Z,97619.81
2023-03-08T21:10:07.214Z,97621.38
2023-03-08T21:12:37.140Z,97622.47
2023-03-08T21:15:08.039Z,97616.41
2023-03-08T21:17:39.928Z,97614.03
2023-03-08T21:20:10.861Z,97609.53
2023-03-08T21:22:40.572Z,97598.16
2023-03-08T21:25:10.305Z,97606.38
2023-03-08T21:27:38.857Z,97597.38
2023-03-08T21:30:09.090Z,97598.44
2023-03-08T21:32:38.325Z,97588.66
2023-03-08T21:35:07.729Z,97573.34
2023-03-08T21:37:36.323Z,97568.06
2023-03-08T21:40:07.915Z,97564.94
2023-03-08T21:42:36.292Z,97587.66
2023-03-08T21:45:05.445Z,97579.22
2023-03-08T21:47:33.718Z,97586.63
2023-03-08T21:50:02.054Z,97588.50
2023-03-08T21:52:30.477Z,97594.06
2023-03-08T21:54:58.876Z,97582.69
2023-03-08T21:57:28.612Z,97586.94
2023-03-08T21:59:56.922Z,97574.50
2023-03-08T22:02:25.263Z,97581.34
2023-03-08T22:04:53.583Z,97572.34
2023-03-08T22:07:21.901Z,97582.38
2023-03-08T22:09:50.257Z,97578.63
2023-03-08T22:12:19.890Z,97576.50
2023-03-08T22:14:49.621Z,97579.16
2023-03-08T22:17:17.912Z,97578.31
2023-03-08T22:19:46.247Z,97573.81
2023-03-08T22:22:14.588Z,97569.53
2023-03-08T22:24:42.932Z,97562.88
2023-03-08T22:27:13.043Z,97558.91
2023-03-08T22:29:41.671Z,97553.59
2023-03-08T22:32:11.430Z,97558.81
2023-03-08T22:34:39.795Z,97562.75
2023-03-08T22:37:08.139Z,97550.84
2023-03-08T22:39:36.459Z,97532.81
2023-03-08T22:42:05.058Z,97529.59
2023-03-08T22:44:33.641Z,97530.91
2023-03-08T22:47:02.040Z,97516.31
2023-03-08T22:49:31.700Z,97527.41
2023-03-08T22:52:00.079Z,97527.09
2023-03-08T22:54:28.799Z,97517.81
2023-03-08T22:56:57.531Z,97522.56
2023-03-08T22:59:26.440Z,97509.03
2023-03-08T23:01:55.777Z,97502.41
2023-03-08T23:04:24.214Z,97493.38
2023-03-08T23:06:53.991Z,97490.75
2023-03-08T23:09:23.271Z,97489.13
2023-03-08T23:11:51.886Z,97469.78
2023-03-08T23:14:20.218Z,97460.50
2023-03-08T23:16:48.785Z,97461.56
2023-03-08T23:19:20.492Z,97456.50
2023-03-08T23:21:49.715Z,97461.47
2023-03-08T23:24:20.407Z,97447.19
2023-03-08T23:26:48.835Z,97448.75
2023-03-08T23:29:17.529Z,97430.25
2023-03-08T23:31:47.589Z,97422.78
2023-03-08T23:34:16.104Z,97411.94
2023-03-08T23:36:44.484Z,97429.06
2023-03-08T23:39:13.030Z,97427.22
2023-03-08T23:41:42.897Z,97432.22
2023-03-08T23:44:12.559Z,97437.22
2023-03-08T23:46:41.235Z,97449.88
2023-03-08T23:49:11.210Z,97448.81
2023-03-08T23:51:39.614Z,97443.00
2023-03-08T23:54:07.976Z,97441.66
2023-03-08T23:56:38.968Z,97448.50
2023-03-08T23:59:13.073Z,97451.16
